Time;durP1;ratioP1;P1;durP2;ratioP2;P2;SDS_P1;SDS_P2;PMS_P1;PMS_P2;Temp;Humidity;BMP_temperature;BMP_pressure;BME280_temperature;BME280_humidity;BME280_pressure;Samples;Min_cycle;Max_cycle;Signal;HPM_P1;HPM_P2
2024/01/18 00:01:51;;;;;;;11.30;4.90;;;;;;;0.63;100.00;97906.69;4972088;28;20221;-69
2024/01/18 00:04:17;;;;;;;7.80;4.40;;;;;;;0.59;100.00;97897.97;4972097;28;20268;-69
2024/01/18 00:06:44;;;;;;;8.03;4.57;;;;;;;0.65;100.00;97917.13;4968706;28;20198;-70
2024/01/18 00:09:10;;;;;;;7.03;3.97;;;;;;;0.59;100.00;97917.91;4968743;28;20212;-69
2024/01/18 00:11:37;;;;;;;9.47;4.57;;;;;;;0.56;100.00;97915.28;4969913;28;20312;-70
2024/01/18 00:14:03;;;;;;;10.10;4.60;;;;;;;0.52;100.00;97918.69;4968210;28;20197;-70
2024/01/18 00:16:29;;;;;;;9.13;4.47;;;;;;;0.59;100.00;97908.38;4970745;28;20205;-69
2024/01/18 00:18:56;;;;;;;10.10;4.37;;;;;;;0.62;100.00;97920.56;4969978;28;20743;-70
2024/01/18 00:21:22;;;;;;;6.67;3.53;;;;;;;0.68;100.00;97923.25;4971273;28;20272;-70
2024/01/18 00:23:49;;;;;;;6.83;3.57;;;;;;;0.57;100.00;97920.50;4969121;28;20212;-70
2024/01/18 00:26:16;;;;;;;6.80;3.87;;;;;;;0.57;100.00;97928.31;4964159;28;20209;-69
2024/01/18 00:28:42;;;;;;;8.57;3.73;;;;;;;0.62;100.00;97933.59;4970466;28;20200;-69
2024/01/18 00:31:08;;;;;;;10.60;4.30;;;;;;;0.60;100.00;97940.50;4968829;28;20249;-69
2024/01/18 00:33:35;;;;;;;8.27;3.97;;;;;;;0.58;100.00;97950.03;4970039;28;20284;-69
2024/01/18 00:36:01;;;;;;;9.60;4.00;;;;;;;0.65;100.00;97961.38;4963781;28;20236;-70
2024/01/18 00:38:28;;;;;;;7.80;3.50;;;;;;;0.72;100.00;97958.00;4969974;28;20224;-70
2024/01/18 00:40:54;;;;;;;6.43;3.67;;;;;;;0.68;100.00;97961.44;4967427;28;20305;-70
2024/01/18 00:43:21;;;;;;;7.43;3.47;;;;;;;0.57;100.00;97956.97;4968793;28;20215;-69
2024/01/18 00:45:47;;;;;;;8.27;4.10;;;;;;;0.49;100.00;97953.38;4964031;28;20209;-69
2024/01/18 00:48:14;;;;;;;9.43;4.50;;;;;;;0.46;100.00;97965.50;4961989;28;20709;-69
2024/01/18 00:50:40;;;;;;;7.07;3.63;;;;;;;0.50;100.00;97970.75;4966188;28;20225;-70
2024/01/18 00:53:07;;;;;;;6.17;3.50;;;;;;;0.57;100.00;97966.50;4969297;28;20312;-70
2024/01/18 00:55:33;;;;;;;7.10;3.80;;;;;;;0.57;100.00;97974.31;4967194;28;20333;-70
2024/01/18 00:58:00;;;;;;;7.63;3.57;;;;;;;0.57;100.00;97975.19;4967338;28;20332;-70
2024/01/18 01:00:27;;;;;;;8.47;3.07;;;;;;;0.63;100.00;97971.78;4967584;28;20212;-68
2024/01/18 01:02:54;;;;;;;6.77;2.80;;;;;;;0.60;100.00;97969.16;4966517;28;20667;-69
2024/01/18 01:05:20;;;;;;;7.77;3.27;;;;;;;0.68;100.00;97977.06;4970890;28;20197;-69
2024/01/18 01:07:47;;;;;;;5.40;3.17;;;;;;;0.70;100.00;97976.22;4964727;28;20201;-70
2024/01/18 01:10:13;;;;;;;5.53;2.90;;;;;;;0.62;100.00;97977.84;4966883;28;20220;-69
2024/01/18 01:12:40;;;;;;;7.00;3.00;;;;;;;0.62;100.00;97978.72;4967563;28;20680;-69
2024/01/18 01:15:07;;;;;;;6.60;2.97;;;;;;;0.59;100.00;97985.63;4963975;28;20240;-69
2024/01/18 01:17:34;;;;;;;6.43;3.37;;;;;;;0.63;100.00;97992.63;4964680;28;20275;-70
2024/01/18 01:20:00;;;;;;;11.10;3.00;;;;;;;0.63;100.00;97996.09;4977228;28;20221;-68
2024/01/18 01:22:31;;;;;;;5.20;2.77;;;;;;;0.63;100.00;98001.31;4967670;28;20217;-70
2024/01/18 01:24:58;;;;;;;4.60;2.70;;;;;;;0.57;100.00;98002.97;4968942;28;20201;-70
2024/01/18 01:27:24;;;;;;;4.33;2.40;;;;;;;0.49;100.00;98015.00;4965605;28;20584;-70
2024/01/18 01:29:50;;;;;;;5.77;2.70;;;;;;;0.41;100.00;98004.47;4968735;28;20236;-70
2024/01/18 01:32:17;;;;;;;4.87;2.60;;;;;;;0.43;100.00;98013.19;4967494;28;20393;-70
2024/01/18 01:34:43;;;;;;;6.30;3.00;;;;;;;0.51;100.00;98010.69;4967306;28;20201;-70
2024/01/18 01:37:10;;;;;;;5.50;2.77;;;;;;;0.41;100.00;98001.88;4966735;28;20596;-70
2024/01/18 01:39:36;;;;;;;5.80;2.60;;;;;;;0.34;100.00;98004.34;4966523;28;20319;-70
2024/01/18 01:42:03;;;;;;;3.90;2.13;;;;;;;0.26;100.00;98012.91;4967419;28;20251;-71
2024/01/18 01:44:29;;;;;;;4.80;2.57;;;;;;;0.23;100.00;97998.97;4966444;28;20213;-71
2024/01/18 01:46:56;;;;;;;6.20;3.00;;;;;;;0.28;100.00;98011.19;4968133;28;20472;-70
2024/01/18 01:49:23;;;;;;;4.47;2.63;;;;;;;0.36;100.00;98013.03;4966981;28;20201;-70
2024/01/18 01:51:52;;;;;;;5.90;2.50;;;;;;;0.43;100.00;98004.50;4963627;28;20229;-71
2024/01/18 01:54:20;;;;;;;5.90;2.87;;;;;;;0.43;100.00;98002.78;4968369;28;20212;-70
2024/01/18 01:56:51;;;;;;;5.67;2.70;;;;;;;0.43;100.00;98007.97;4964316;28;20209;-70
2024/01/18 01:59:19;;;;;;;6.17;3.07;;;;;;;0.49;100.00;98000.25;4966773;28;20319;-71
2024/01/18 02:01:45;;;;;;;6.17;2.53;;;;;;;0.45;100.00;98010.59;4966815;28;20232;-70
2024/01/18 02:04:15;;;;;;;6.87;2.97;;;;;;;0.43;100.00;97988.88;4970418;28;20209;-72
2024/01/18 02:06:43;;;;;;;5.07;2.70;;;;;;;0.46;100.00;97997.59;4968237;28;20211;-70
2024/01/18 02:09:11;;;;;;;4.10;2.33;;;;;;;0.45;100.00;98006.28;4965589;28;20661;-68
2024/01/18 02:11:38;;;;;;;5.50;2.13;;;;;;;0.45;100.00;98008.00;4968316;28;20236;-69
2024/01/18 02:14:05;;;;;;;6.67;2.63;;;;;;;0.42;100.00;98015.75;4962773;28;20298;-69
2024/01/18 02:16:32;;;;;;;3.23;1.90;;;;;;;0.43;100.00;98018.38;4961757;28;20208;-69
2024/01/18 02:18:59;;;;;;;4.77;1.90;;;;;;;0.49;100.00;98022.81;4965472;28;20605;-69
2024/01/18 02:21:26;;;;;;;3.80;2.30;;;;;;;0.44;100.00;98019.25;4967503;28;20314;-67
2024/01/18 02:24:02;;;;;;;5.90;2.50;;;;;;;0.47;100.00;98021.91;4968081;28;20255;-70
2024/01/18 02:26:29;;;;;;;4.93;1.97;;;;;;;0.44;100.00;98020.13;4970246;28;20204;-69
2024/01/18 02:28:57;;;;;;;2.57;1.77;;;;;;;0.46;100.00;98022.75;4965708;28;20205;-70
2024/01/18 02:31:24;;;;;;;2.17;1.70;;;;;;;0.48;100.00;98023.66;4965120;28;20553;-68
2024/01/18 02:33:51;;;;;;;3.50;2.00;;;;;;;0.52;100.00;98025.44;4968513;28;20201;-68
2024/01/18 02:36:21;;;;;;;4.47;2.00;;;;;;;0.48;100.00;98028.88;4968925;28;20687;-70
2024/01/18 02:38:49;;;;;;;1.80;1.33;;;;;;;0.50;100.00;98021.94;4964379;28;20224;-68
2024/01/18 02:41:15;;;;;;;3.50;1.70;;;;;;;0.54;100.00;98019.41;4966026;28;20231;-66
2024/01/18 02:43:42;;;;;;;3.67;1.73;;;;;;;0.62;100.00;98007.38;4965995;28;20291;-68
2024/01/18 02:46:08;;;;;;;4.60;1.43;;;;;;;0.55;100.00;98002.06;4964856;28;20209;-69
2024/01/18 02:48:35;;;;;;;1.50;0.87;;;;;;;0.67;100.00;98024.78;4962022;28;20208;-69
2024/01/18 02:51:03;;;;;;;1.60;1.00;;;;;;;0.58;100.00;98020.34;4965019;28;20365;-68
2024/01/18 02:53:30;;;;;;;1.57;0.90;;;;;;;0.58;100.00;98005.59;4967137;28;20208;-68
2024/01/18 02:55:56;;;;;;;2.03;1.00;;;;;;;0.57;100.00;98008.16;4967926;28;20209;-68
2024/01/18 02:58:23;;;;;;;1.60;1.10;;;;;;;0.52;100.00;98013.31;4962392;28;20460;-68
2024/01/18 03:00:49;;;;;;;2.30;1.20;;;;;;;0.56;100.00;98009.03;4964366;28;20265;-69
2024/01/18 03:03:15;;;;;;;1.83;1.00;;;;;;;0.61;100.00;98009.97;4960191;28;20217;-68
2024/01/18 03:05:42;;;;;;;1.50;1.10;;;;;;;0.56;100.00;98011.63;4964882;28;20219;-68
2024/01/18 03:08:08;;;;;;;0.90;0.73;;;;;;;0.59;100.00;98022.97;4965600;28;20209;-68
2024/01/18 03:10:35;;;;;;;1.27;1.00;;;;;;;0.53;100.00;98014.19;4963473;28;20255;-69
2024/01/18 03:13:01;;;;;;;2.03;1.10;;;;;;;0.52;100.00;98021.13;4970069;28;20207;-68
2024/01/18 03:15:27;;;;;;;2.13;1.40;;;;;;;0.52;100.00;98028.06;4970376;28;20209;-69
2024/01/18 03:17:54;;;;;;;1.60;1.00;;;;;;;0.56;100.00;98022.03;4969504;28;20255;-69
2024/01/18 03:20:20;;;;;;;1.63;1.20;;;;;;;0.60;100.00;98029.91;4970138;28;20208;-69
2024/01/18 03:22:47;;;;;;;1.60;1.10;;;;;;;0.67;100.00;98027.41;4970511;28;20203;-69
2024/01/18 03:25:13;;;;;;;2.17;1.17;;;;;;;0.57;100.00;98027.28;4970703;28;20212;-68
2024/01/18 03:27:40;;;;;;;2.13;1.43;;;;;;;0.58;100.00;98034.22;4969424;28;20574;-68
2024/01/18 03:30:09;;;;;;;2.07;1.33;;;;;;;0.55;100.00;98030.72;4970229;28;20206;-68
2024/01/18 03:32:36;;;;;;;4.53;1.13;;;;;;;0.67;100.00;98028.28;4969345;28;20581;-69
2024/01/18 03:35:03;;;;;;;1.90;0.93;;;;;;;0.71;100.00;98037.88;4971125;28;20744;-68
2024/01/18 03:37:29;;;;;;;1.00;0.90;;;;;;;0.72;100.00;98034.41;4972043;28;20764;-69
2024/01/18 03:39:55;;;;;;;2.27;1.50;;;;;;;0.68;100.00;98030.03;4966339;28;20279;-69
2024/01/18 03:42:22;;;;;;;2.80;1.57;;;;;;;0.63;100.00;98026.47;4968667;28;20217;-68
2024/01/18 03:44:51;;;;;;;1.60;1.20;;;;;;;0.57;100.00;98032.47;4967552;28;20211;-68
2024/01/18 03:47:17;;;;;;;2.90;1.30;;;;;;;0.50;100.00;98029.75;4965050;28;20216;-69
2024/01/18 03:49:43;;;;;;;3.50;1.57;;;;;;;0.46;100.00;98020.16;4971828;28;20435;-69
2024/01/18 03:52:10;;;;;;;4.07;1.67;;;;;;;0.50;100.00;98016.75;4969299;28;20232;-69
2024/01/18 03:54:36;;;;;;;3.40;1.40;;;;;;;0.52;100.00;98012.44;4966117;28;20215;-68
2024/01/18 03:57:03;;;;;;;2.10;1.60;;;;;;;0.51;100.00;98019.38;4970273;28;20199;-68
2024/01/18 03:59:30;;;;;;;2.57;1.60;;;;;;;0.51;100.00;98023.69;4970323;28;20282;-68
2024/01/18 04:01:56;;;;;;;2.97;1.77;;;;;;;0.45;100.00;98023.63;4969608;28;20227;-68
2024/01/18 04:04:23;;;;;;;3.30;1.40;;;;;;;0.43;100.00;98017.50;4963780;28;20639;-68
2024/01/18 04:06:49;;;;;;;3.67;1.47;;;;;;;0.39;100.00;98026.09;4968579;28;20233;-68
2024/01/18 04:09:16;;;;;;;3.33;1.47;;;;;;;0.34;100.00;98017.34;4971325;28;20211;-69
2024/01/18 04:11:42;;;;;;;2.27;1.40;;;;;;;0.36;100.00;98024.31;4971220;28;20310;-69
2024/01/18 04:14:09;;;;;;;2.97;1.40;;;;;;;0.33;100.00;98026.88;4969824;28;20222;-68
2024/01/18 04:16:35;;;;;;;2.77;1.50;;;;;;;0.31;100.00;98028.59;4968469;28;20680;-68
2024/01/18 04:19:01;;;;;;;2.00;1.23;;;;;;;0.26;100.00;98027.66;4969568;28;20232;-69
2024/01/18 04:21:30;;;;;;;5.43;1.93;;;;;;;0.26;100.00;98044.13;4965461;28;20232;-70
2024/01/18 04:23:56;;;;;;;1.90;1.33;;;;;;;0.38;100.00;98047.78;4967563;28;20212;-68
2024/01/18 04:26:24;;;;;;;2.90;1.63;;;;;;;0.43;100.00;98053.97;4964072;28;20691;-70
2024/01/18 04:28:51;;;;;;;2.20;1.33;;;;;;;0.40;100.00;98064.31;4968805;28;20291;-69
2024/01/18 04:31:18;;;;;;;3.27;1.40;;;;;;;0.37;100.00;98085.94;4970789;28;20225;-69
2024/01/18 04:33:47;;;;;;;2.83;1.33;;;;;;;0.36;100.00;98097.22;4966713;28;20749;-69
2024/01/18 04:36:13;;;;;;;2.67;1.23;;;;;;;0.40;100.00;98105.94;4970947;28;20302;-69
2024/01/18 04:38:40;;;;;;;1.43;0.90;;;;;;;0.28;100.00;98089.28;4969803;28;20239;-69
2024/01/18 04:41:06;;;;;;;2.67;1.30;;;;;;;0.36;100.00;98111.97;4969911;28;20234;-69
2024/01/18 04:43:33;;;;;;;1.67;1.30;;;;;;;0.19;100.00;98116.88;4966874;28;20224;-70
2024/01/18 04:46:00;;;;;;;2.13;1.07;;;;;;;0.14;100.00;98115.94;4966889;28;20602;-68
2024/01/18 04:48:27;;;;;;;0.57;0.50;;;;;;;0.10;100.00;98140.16;4969423;28;20209;-68
2024/01/18 04:50:53;;;;;;;5.10;1.20;;;;;;;-0.01;100.00;98138.22;4968262;28;20223;-68
2024/01/18 04:53:22;;;;;;;1.43;0.87;;;;;;;-0.05;100.00;98131.19;4967019;28;20284;-68
2024/01/18 04:55:50;;;;;;;1.70;1.20;;;;;;;-0.10;100.00;98134.56;4968498;28;20277;-67
2024/01/18 04:58:16;;;;;;;1.77;1.10;;;;;;;-0.16;100.00;98134.44;4972412;28;20204;-68
2024/01/18 05:00:43;;;;;;;1.50;1.10;;;;;;;-0.14;100.00;98137.97;4970934;28;20227;-69
2024/01/18 05:03:09;;;;;;;1.17;0.80;;;;;;;-0.22;100.00;98137.81;4966972;28;20579;-68
2024/01/18 05:05:37;;;;;;;1.80;0.97;;;;;;;-0.29;100.00;98138.56;4971219;28;20214;-70
2024/01/18 05:08:04;;;;;;;5.43;0.80;;;;;;;-0.30;100.00;98148.91;4970388;28;20205;-69
2024/01/18 05:10:30;;;;;;;1.00;0.67;;;;;;;-0.34;100.00;98143.66;4968031;28;20363;-69
2024/01/18 05:12:57;;;;;;;0.93;0.90;;;;;;;-0.36;100.00;98144.47;4968226;28;20300;-69
2024/01/18 05:15:25;;;;;;;1.57;0.90;;;;;;;-0.48;100.00;98142.47;4963783;28;20587;-69
2024/01/18 05:17:51;;;;;;;2.23;1.00;;;;;;;-0.51;100.00;98142.44;4966861;28;20246;-68
2024/01/18 05:20:18;;;;;;;0.60;0.60;;;;;;;-0.53;100.00;98140.63;4967439;28;20222;-68
2024/01/18 05:22:44;;;;;;;1.10;0.80;;;;;;;-0.56;100.00;98138.84;4969140;28;20681;-69
2024/01/18 05:25:11;;;;;;;1.00;0.40;;;;;;;-0.61;100.00;98137.88;4969586;28;20206;-69
2024/01/18 05:27:37;;;;;;;1.70;1.40;;;;;;;-0.60;100.00;98151.75;4966056;28;20235;-69
2024/01/18 05:30:05;;;;;;;1.33;1.10;;;;;;;-0.64;100.00;98148.22;4970048;28;20256;-68
2024/01/18 05:32:31;;;;;;;1.67;1.20;;;;;;;-0.69;100.00;98155.94;4965334;28;20223;-70
2024/01/18 05:34:58;;;;;;;2.30;1.30;;;;;;;-0.69;100.00;98158.53;4968040;28;20198;-69
2024/01/18 05:37:24;;;;;;;10.30;0.70;;;;;;;-0.69;100.00;98165.44;4965045;28;20204;-69
2024/01/18 05:39:51;;;;;;;1.13;0.83;;;;;;;-0.68;100.00;98165.47;4963385;28;20217;-70
2024/01/18 05:42:18;;;;;;;1.00;0.90;;;;;;;-0.70;100.00;98179.28;4969944;28;20562;-69
2024/01/18 05:44:49;;;;;;;0.87;0.80;;;;;;;-0.66;100.00;98175.91;4970773;28;20256;-69
2024/01/18 05:47:15;;;;;;;1.23;0.90;;;;;;;-0.73;100.00;98176.63;4967976;28;20215;-69
2024/01/18 05:49:42;;;;;;;0.77;0.50;;;;;;;-0.80;100.00;98175.63;4967639;28;20213;-68
2024/01/18 05:52:08;;;;;;;1.37;0.80;;;;;;;-0.86;100.00;98177.16;4969763;28;20270;-69
2024/01/18 05:54:34;;;;;;;2.50;0.70;;;;;;;-0.86;100.00;98185.84;4969696;28;20197;-69
2024/01/18 05:57:04;;;;;;;1.07;0.43;;;;;;;-0.87;100.00;98191.88;4970474;28;20205;-69
2024/01/18 05:59:31;;;;;;;0.80;0.73;;;;;;;-0.92;100.00;98190.03;4970161;28;20221;-70
2024/01/18 06:01:58;;;;;;;1.00;0.60;;;;;;;-0.96;100.00;98179.56;4966658;28;20229;-69
2024/01/18 06:04:25;;;;;;;0.77;0.50;;;;;;;-0.99;100.00;98192.47;4970207;28;20206;-69
2024/01/18 06:06:52;;;;;;;0.73;0.70;;;;;;;-1.02;100.00;98186.34;4968507;28;20653;-69
2024/01/18 06:09:18;;;;;;;1.77;1.27;;;;;;;-1.05;100.00;98192.34;4964487;28;20202;-69
2024/01/18 06:11:46;;;;;;;2.57;1.50;;;;;;;-1.09;100.00;98190.53;4969786;28;20598;-69
2024/01/18 06:14:12;;;;;;;3.20;1.80;;;;;;;-1.07;100.00;98207.03;4969715;28;20197;-68
2024/01/18 06:16:39;;;;;;;0.87;0.80;;;;;;;-1.12;100.00;98213.81;4970060;28;20198;-70
2024/01/18 06:19:05;;;;;;;1.03;0.70;;;;;;;-1.14;100.00;98223.28;4967446;28;20308;-70
2024/01/18 06:21:32;;;;;;;2.33;0.80;;;;;;;-1.19;100.00;98211.94;4965324;28;20222;-70
2024/01/18 06:24:02;;;;;;;0.63;0.50;;;;;;;-1.17;100.00;98210.25;4967470;28;20201;-70
2024/01/18 06:26:29;;;;;;;1.43;0.47;;;;;;;-1.15;100.00;98228.47;4969832;28;20560;-69
2024/01/18 06:28:55;;;;;;;2.17;1.60;;;;;;;-1.22;100.00;98232.59;4969471;28;20286;-69
2024/01/18 06:31:26;;;;;;;1.07;0.67;;;;;;;-1.25;100.00;98240.31;4969299;28;20220;-69
2024/01/18 06:33:53;;;;;;;0.67;0.60;;;;;;;-1.24;100.00;98241.19;4968828;28;20289;-70
2024/01/18 06:36:22;;;;;;;0.80;0.80;;;;;;;-1.32;100.00;98236.69;4970203;28;20205;-69
2024/01/18 06:38:49;;;;;;;3.80;1.50;;;;;;;-1.27;100.00;98236.78;4969397;28;20732;-68
2024/01/18 06:41:16;;;;;;;2.10;1.00;;;;;;;-1.28;100.00;98232.44;4954549;28;20221;-70
2024/01/18 06:43:43;;;;;;;2.93;1.83;;;;;;;-1.25;100.00;98235.13;4961301;28;20205;-73
2024/01/18 06:46:16;;;;;;;0.90;0.90;;;;;;;-1.21;100.00;98233.47;4968818;28;20206;-71
2024/01/18 06:48:45;;;;;;;1.53;1.00;;;;;;;-1.21;100.00;98234.34;4972608;28;20207;-71
2024/01/18 06:51:14;;;;;;;2.37;1.03;;;;;;;-1.26;100.00;98248.94;4969302;28;20319;-71
2024/01/18 06:53:41;;;;;;;1.17;0.90;;;;;;;-1.28;100.00;98242.84;4972224;28;20288;-71
2024/01/18 06:56:12;;;;;;;1.53;1.10;;;;;;;-1.31;100.00;98235.84;4972513;28;20205;-69
2024/01/18 06:58:38;;;;;;;2.27;1.00;;;;;;;-1.28;100.00;98250.63;4970350;28;20205;-71
2024/01/18 07:01:05;;;;;;;3.20;2.13;;;;;;;-1.32;100.00;98257.44;4957810;28;20673;-71
2024/01/18 07:03:32;;;;;;;4.30;2.00;;;;;;;-1.35;100.00;98265.16;4968944;28;20247;-70
2024/01/18 07:05:59;;;;;;;3.77;2.17;;;;;;;-1.34;100.00;98259.13;4972278;28;20757;-71
2024/01/18 07:08:25;;;;;;;4.23;2.17;;;;;;;-1.35;100.00;98270.34;4973532;28;20240;-71
2024/01/18 07:10:52;;;;;;;1.47;1.00;;;;;;;-1.41;100.00;98270.22;4971530;28;20736;-72
2024/01/18 07:13:18;;;;;;;3.07;2.07;;;;;;;-1.41;100.00;98270.22;4960761;28;20722;-71
2024/01/18 07:15:44;;;;;;;3.30;1.97;;;;;;;-1.36;100.00;98271.19;4972034;28;20202;-70
2024/01/18 07:18:12;;;;;;;2.80;1.20;;;;;;;-1.36;100.00;98281.59;4972805;28;23156;-73
2024/01/18 07:20:39;;;;;;;3.60;0.93;;;;;;;-1.32;100.00;98282.53;4970810;28;20256;-72
2024/01/18 07:23:05;;;;;;;2.10;1.03;;;;;;;-1.33;100.00;98281.66;4970546;28;20265;-72
2024/01/18 07:25:32;;;;;;;4.53;2.30;;;;;;;-1.29;100.00;98278.31;4970684;28;20579;-72
2024/01/18 07:27:58;;;;;;;0.60;0.60;;;;;;;-1.26;100.00;98282.69;4973042;28;20662;-72
2024/01/18 07:30:25;;;;;;;2.07;1.10;;;;;;;-1.25;100.00;98274.06;4969983;28;20202;-70
2024/01/18 07:32:51;;;;;;;0.73;0.70;;;;;;;-1.25;100.00;98263.69;4972645;28;20689;-71
2024/01/18 07:35:18;;;;;;;0.70;0.70;;;;;;;-1.06;100.00;98285.81;4973017;28;20602;-72
2024/01/18 07:37:44;;;;;;;1.40;0.90;;;;;;;-1.08;100.00;98277.09;4971506;28;20201;-71
2024/01/18 07:40:11;;;;;;;1.73;0.80;;;;;;;-1.04;100.00;98286.72;4967161;28;20721;-71
2024/01/18 07:42:37;;;;;;;2.60;1.07;;;;;;;-1.04;100.00;98290.19;4970516;28;20789;-71
2024/01/18 07:45:08;;;;;;;0.30;0.30;;;;;;;-1.01;100.00;98289.41;4971482;28;20210;-72
2024/01/18 07:47:35;;;;;;;1.03;0.70;;;;;;;-1.10;100.00;98284.84;4971765;28;20583;-72
2024/01/18 07:50:01;;;;;;;1.97;0.77;;;;;;;-1.00;100.00;98289.44;4972176;28;20298;-71
2024/01/18 07:52:48;;;;;;;4.03;2.10;;;;;;;-0.96;100.00;98303.38;4970545;28;20216;-71
2024/01/18 07:55:15;;;;;;;2.70;1.03;;;;;;;-0.96;100.00;98288.66;4969788;28;20227;-72
2024/01/18 07:57:45;;;;;;;1.60;1.23;;;;;;;-0.91;100.00;98295.69;4967548;28;20238;-73
2024/01/18 08:00:12;;;;;;;1.23;0.73;;;;;;;-0.85;100.00;98298.44;4970087;28;20579;-72
2024/01/18 08:02:39;;;;;;;3.17;1.17;;;;;;;-0.88;100.00;98287.97;4971907;28;20225;-71
2024/01/18 08:05:05;;;;;;;2.63;1.57;;;;;;;-0.85;100.00;98303.63;4970410;28;20206;-72
2024/01/18 08:07:32;;;;;;;4.33;2.53;;;;;;;-0.81;100.00;98313.25;4971128;28;20205;-72
2024/01/18 08:09:58;;;;;;;2.23;1.23;;;;;;;-0.77;100.00;98299.53;4967573;28;20203;-71
2024/01/18 08:12:25;;;;;;;5.40;3.23;;;;;;;-0.73;100.00;98311.75;4970240;28;20780;-73
2024/01/18 08:14:51;;;;;;;1.20;1.10;;;;;;;-0.78;100.00;98315.97;4968865;28;20210;-70
2024/01/18 08:17:17;;;;;;;1.63;1.17;;;;;;;-0.75;100.00;98322.09;4970717;28;20213;-71
2024/01/18 08:19:44;;;;;;;3.23;1.67;;;;;;;-0.72;100.00;98334.28;4969759;28;20225;-76
2024/01/18 08:22:12;;;;;;;1.77;1.40;;;;;;;-0.71;100.00;98323.06;4968455;28;20276;-71
2024/01/18 08:24:39;;;;;;;2.13;1.60;;;;;;;-0.72;100.00;98334.28;4969469;28;20209;-75
2024/01/18 08:27:05;;;;;;;3.13;1.50;;;;;;;-0.81;100.00;98321.06;4968709;28;20202;-71
2024/01/18 08:29:31;;;;;;;3.03;1.73;;;;;;;-0.67;100.00;98337.88;4970836;28;20229;-68
2024/01/18 08:31:58;;;;;;;4.07;1.93;;;;;;;-0.60;100.00;98344.97;4970499;28;20230;-71
2024/01/18 08:34:24;;;;;;;3.50;1.60;;;;;;;-0.55;100.00;98350.28;4969779;28;20294;-73
2024/01/18 08:36:51;;;;;;;3.97;2.27;;;;;;;-0.49;100.00;98351.31;4970418;28;20545;-73
2024/01/18 08:39:18;;;;;;;4.80;1.90;;;;;;;-0.40;100.00;98351.56;4965019;28;20202;-71
2024/01/18 08:41:46;;;;;;;6.83;2.00;;;;;;;-0.41;100.00;98365.34;4966376;28;20240;-70
2024/01/18 08:44:13;;;;;;;3.80;2.10;;;;;;;-0.41;100.00;98360.16;4965900;28;20237;-72
2024/01/18 08:46:39;;;;;;;3.57;1.57;;;;;;;-0.44;100.00;98360.09;4953880;28;20232;-66
2024/01/18 08:49:07;;;;;;;4.30;1.67;;;;;;;-0.45;100.00;98373.94;4967239;28;20250;-70
2024/01/18 08:51:34;;;;;;;3.20;1.90;;;;;;;-0.50;100.00;98383.34;4969793;28;20261;-70
2024/01/18 08:54:01;;;;;;;2.10;1.67;;;;;;;-0.57;100.00;98376.25;4967881;28;20264;-69
2024/01/18 08:56:27;;;;;;;4.03;2.03;;;;;;;-0.60;100.00;98389.16;4969025;28;20202;-70
2024/01/18 08:58:57;;;;;;;3.40;1.73;;;;;;;-0.63;100.00;98395.16;4966909;28;20198;-70
2024/01/18 09:01:23;;;;;;;2.97;1.43;;;;;;;-0.58;100.00;98403.06;4966668;28;20654;-69
2024/01/18 09:03:51;;;;;;;2.87;1.43;;;;;;;-0.57;100.00;98402.25;4969611;28;20316;-73
2024/01/18 09:06:18;;;;;;;3.97;1.70;;;;;;;-0.55;100.00;98400.56;4962270;28;20205;-71
2024/01/18 09:08:45;;;;;;;2.83;1.60;;;;;;;-0.50;100.00;98406.75;4964983;28;20234;-70
2024/01/18 09:11:14;;;;;;;2.97;1.40;;;;;;;-0.47;100.00;98412.00;4970164;28;20225;-71
2024/01/18 09:13:41;;;;;;;2.57;1.53;;;;;;;-0.38;100.00;98417.47;4969238;28;20233;-70
2024/01/18 09:16:08;;;;;;;4.43;1.47;;;;;;;-0.37;100.00;98426.16;4969962;28;20211;-70
2024/01/18 09:18:34;;;;;;;4.50;1.67;;;;;;;-0.40;100.00;98426.03;4967348;28;20232;-69
2024/01/18 09:21:01;;;;;;;4.60;2.00;;;;;;;-0.44;100.00;98425.09;4965860;28;20241;-68
2024/01/18 09:23:27;;;;;;;4.33;2.13;;;;;;;-0.30;100.00;98432.38;4971294;28;20678;-69
2024/01/18 09:25:53;;;;;;;3.17;2.10;;;;;;;-0.18;100.00;98440.47;4966414;28;20210;-70
2024/01/18 09:28:21;;;;;;;3.37;2.13;;;;;;;-0.19;100.00;98438.72;4970077;28;20210;-70
2024/01/18 09:30:48;;;;;;;3.70;2.13;;;;;;;-0.09;100.00;98445.88;4964083;28;20554;-70
2024/01/18 09:33:15;;;;;;;4.00;2.07;;;;;;;-0.07;100.00;98449.41;4958333;28;20245;-71
2024/01/18 09:35:42;;;;;;;4.23;2.23;;;;;;;-0.05;100.00;98453.78;4962652;28;20249;-70
2024/01/18 09:38:10;;;;;;;3.87;2.27;;;;;;;0.08;100.00;98465.41;4969041;28;20555;-68
2024/01/18 09:40:39;;;;;;;6.30;2.40;;;;;;;0.03;100.00;98472.22;4968907;28;20243;-68
2024/01/18 09:43:08;;;;;;;4.80;1.97;;;;;;;0.00;100.00;98474.75;4963378;28;20207;-70
2024/01/18 09:45:39;;;;;;;5.87;2.27;;;;;;;0.09;100.00;98482.75;4965611;28;20210;-72
2024/01/18 09:48:07;;;;;;;4.37;2.23;;;;;;;0.09;100.00;98490.56;4968847;28;20212;-71
2024/01/18 09:50:41;;;;;;;8.20;2.23;;;;;;;0.18;100.00;98510.72;4968203;28;20203;-69
2024/01/18 09:53:08;;;;;;;6.23;2.87;;;;;;;0.22;100.00;98503.03;4966566;28;20217;-71
2024/01/18 09:55:34;;;;;;;4.37;2.37;;;;;;;0.18;100.00;98498.59;4969934;28;20211;-71
2024/01/18 09:58:07;;;;;;;6.00;3.20;;;;;;;0.18;100.00;98516.81;4970146;28;20274;-71
2024/01/18 10:00:37;;;;;;;7.03;3.70;;;;;;;0.17;100.00;98516.78;4966305;28;20215;-69
2024/01/18 10:03:03;;;;;;;6.27;2.07;;;;;;;0.19;100.00;98526.38;4968383;28;20201;-70
2024/01/18 10:05:30;;;;;;;4.43;2.67;;;;;;;0.25;100.00;98523.03;4964778;28;20207;-69
2024/01/18 10:07:57;;;;;;;7.03;2.43;;;;;;;0.33;100.00;98521.50;4968327;28;20223;-70
2024/01/18 10:10:23;;;;;;;4.83;2.50;;;;;;;0.39;100.00;98518.16;4969676;28;20214;-69
2024/01/18 10:12:50;;;;;;;7.23;2.40;;;;;;;0.43;100.00;98520.88;4965763;28;20219;-70
2024/01/18 10:15:33;;;;;;;5.23;2.27;;;;;;;0.51;100.00;98542.75;4965428;28;20329;-69
2024/01/18 10:18:02;;;;;;;3.60;1.90;;;;;;;0.57;100.00;98542.91;4964993;28;20215;-70
2024/01/18 10:20:29;;;;;;;7.13;2.50;;;;;;;0.70;100.00;98545.78;4963501;28;20227;-70
2024/01/18 10:22:57;;;;;;;5.67;2.03;;;;;;;0.68;100.00;98537.94;4963866;28;20216;-69
2024/01/18 10:25:26;;;;;;;4.33;2.20;;;;;;;0.88;100.00;98535.78;4968237;28;20220;-68
2024/01/18 10:27:54;;;;;;;5.03;2.20;;;;;;;0.91;100.00;98538.44;4966298;28;20204;-70
2024/01/18 10:30:21;;;;;;;5.83;2.57;;;;;;;0.94;100.00;98544.59;4965900;28;20221;-68
2024/01/18 10:32:48;;;;;;;5.50;3.10;;;;;;;1.09;100.00;98551.84;4967324;28;20208;-68
2024/01/18 10:35:24;;;;;;;4.30;1.93;;;;;;;0.96;100.00;98555.06;4963351;28;20295;-67
2024/01/18 10:38:00;;;;;;;6.10;2.37;;;;;;;1.03;100.00;98567.38;4964404;28;20661;-68
2024/01/18 10:40:30;;;;;;;2.07;1.43;;;;;;;1.07;100.00;98565.69;4965358;28;20769;-69
2024/01/18 10:42:57;;;;;;;3.10;1.70;;;;;;;1.20;100.00;98568.63;4965362;28;20676;-69
2024/01/18 10:45:27;;;;;;;3.37;1.77;;;;;;;1.36;100.00;98566.31;4964014;28;20282;-66
2024/01/18 10:47:55;;;;;;;3.80;2.20;;;;;;;1.50;100.00;98577.91;4966544;28;20208;-68
2024/01/18 10:50:22;;;;;;;5.67;2.00;;;;;;;1.69;100.00;98579.16;4965829;28;20233;-68
2024/01/18 10:52:51;;;;;;;7.03;3.03;;;;;;;1.80;100.00;98585.44;4968042;28;20544;-70
2024/01/18 10:55:18;;;;;;;4.30;1.93;;;;;;;1.71;100.00;98582.66;4969322;28;20299;-68
2024/01/18 10:57:48;;;;;;;5.67;2.23;;;;;;;1.41;100.00;98591.63;4965302;28;20229;-68
2024/01/18 11:00:16;;;;;;;7.33;1.87;;;;;;;1.45;100.00;98600.41;4963422;28;20506;-68
2024/01/18 11:02:44;;;;;;;4.33;2.17;;;;;;;1.51;100.00;98614.44;4967942;28;20216;-67
2024/01/18 11:05:17;;;;;;;2.80;2.07;;;;;;;1.65;100.00;98612.13;4962320;28;20800;-66
2024/01/18 11:07:45;;;;;;;4.40;1.80;;;;;;;1.60;100.00;98610.25;4964055;28;20208;-68
2024/01/18 11:10:12;;;;;;;3.67;1.77;;;;;;;1.52;100.00;98607.50;4956283;28;20568;-66
2024/01/18 11:12:41;;;;;;;4.70;2.07;;;;;;;1.54;100.00;98608.41;4964115;28;20239;-68
2024/01/18 11:15:11;;;;;;;3.43;2.10;;;;;;;1.67;100.00;98618.25;4955451;28;20216;-70
2024/01/18 11:17:46;;;;;;;3.60;2.00;;;;;;;1.73;100.00;98620.09;4964730;28;20701;-67
2024/01/18 11:20:14;;;;;;;4.97;2.20;;;;;;;1.86;100.00;98628.19;4966110;28;20232;-67
2024/01/18 11:22:41;;;;;;;5.00;2.20;;;;;;;1.98;100.00;98637.97;4985476;28;20226;-67
2024/01/18 11:25:10;;;;;;;2.63;2.10;;;;;;;1.82;100.00;98639.44;4975052;28;20582;-68
2024/01/18 11:27:41;;;;;;;4.70;2.43;;;;;;;1.87;100.00;98647.34;4979374;28;20289;-67
2024/01/18 11:30:13;;;;;;;5.30;2.40;;;;;;;2.10;100.00;98650.41;4969118;28;20217;-68